Airfield :
LOGIN :

Register | Disclaimer

   EN    FR    IT 

 










Legend :    VFR   Marginal VFR   IFR   Intensive IFR   Very Intensive IFR
Visi :
Ceiling :
>= 8 km
>= 3000ft
5 to 8 km
1000 to 3000 ft
1500m to 5 km
500 to 1000 ft
800 to 1500m
200 to 500 ft
< 800m
< 200 ft
Symbols :   Thunderstorms  Fog  Heavy snow  Heavy precipitations  Wind > 20 kt
SIGMETs :     Misc.  Thunderstorms  Icing  Turbulence  Mountain Waves  Volcanic Ashes






- Airport Elevation : 404 ft
- IATA code : WRO


EPWR - Wroclaw

CURRENT METAR :
  • 161100Z 34007KT 300V360 9999 FEW050TCU 28/21 Q1011

EXPIRED METARs :
  • 161030Z 36008KT 9999 FEW050TCU 25/20 Q1011 RETS
  • 161000Z 34011KT 300V010 9999 -TSRA FEW007 SCT025CB 21/19 Q1011 RESHRA
  • 160930Z 32013KT 9999 -TSRA SCT040CB 27/19 Q1011
  • 160900Z 11005KT 9999 FEW060TCU 29/20 Q1011
  • 160830Z 13009KT CAVOK 30/21 Q1011
  • 160800Z 14006KT CAVOK 29/19 Q1010
  • 160730Z 12005KT CAVOK 28/19 Q1010
  • 160700Z 11005KT CAVOK 26/20 Q1011
  • 160630Z 12005KT CAVOK 25/19 Q1011

TAF AMD TAF EPWR
Valid from the 16 at 09:00 until the 17 at 09:00 UTC


160908Z 1609/1709 35006KT CAVOK
BECMG 1609/1611 29010KT
TEMPO 1609/1615 30016G26KT 3000 TSRA BKN050CB
PROB40
TEMPO 1609/1613 VRB24G40KT 0800 +TSRAGR
BECMG 1616/1619 23005KT



MET'MAP, your aeronautical weather chart ! - Copyright ORBIFLY December 2007 - Disclaimer

ORBIFLY MET'MAP TEAM :

Programming & Development : Alexandra Zaïnal
Original concept : Baudouin d'Aumeries
Technical & hardware support : Manuel Goepfert
Assistance : Marc-Olivier Méhu




SOURCES & CREDITS :

   NOAA